Parq Ecuestre, Puerto Rico
Current Conditions -  °F | °C
As of 3:56 PM on Sunday 28 Dec 2014 (Local Time) from TJSJ Reporting Station
Scattered Clouds Scattered Clouds  
Wind Chill: 81°   Ceiling: Unl
Heat Index: 84°   Visibility: 10mi
Dew Point: 69°   Wind: 14mph
Humidity: 67%   Direction: 50°NE
Pressure: 30"   Gusts: NA
Location:  18.4083°N, 65.981°W
Report Text: TJSJ 281956Z 05012KT 10SM FEW022 SCT040 SCT100 27/21 A3000 RMK AO2 SLP158 T02720206
Loading
Personal Weather Stations






























Interactive Weather Map New forecast layout! Learn more

10-Day Weather Forecast

Advertisements
Track Severe Weather on mobile